createdAt,value
2022-09-01T00:04:58.302Z,100683.50
2022-09-01T00:10:01.656Z,100690.72
2022-09-01T00:15:09.839Z,100691.66
2022-09-01T00:20:15.874Z,100682.38
2022-09-01T00:25:21.804Z,100681.09
2022-09-01T00:30:26.423Z,100690.28
2022-09-01T00:35:29.405Z,100679.94
2022-09-01T00:40:32.682Z,100681.09
2022-09-01T00:45:36.783Z,100675.31
2022-09-01T00:50:39.800Z,100675.84
2022-09-01T00:55:42.911Z,100679.41
2022-09-01T01:00:49.799Z,100684.09
2022-09-01T01:05:57.981Z,100674.38
2022-09-01T01:11:01.920Z,100672.94
2022-09-01T01:16:15.876Z,100668.66
2022-09-01T01:21:42.130Z,100671.44
2022-09-01T01:26:47.436Z,100674.06
2022-09-01T01:31:53.499Z,100669.84
2022-09-01T01:37:01.685Z,100676.41
2022-09-01T01:42:08.045Z,100676.13
2022-09-01T01:47:14.318Z,100679.22
2022-09-01T01:52:17.472Z,100678.91
2022-09-01T01:57:22.745Z,100675.22
2022-09-01T02:02:25.542Z,100674.69
2022-09-01T02:07:28.336Z,100667.44
2022-09-01T02:12:37.919Z,100661.03
2022-09-01T02:17:43.186Z,100665.47
2022-09-01T02:22:45.889Z,100664.50
2022-09-01T02:27:53.308Z,100668.06
2022-09-01T02:32:56.105Z,100658.63
2022-09-01T02:38:00.953Z,100656.78
2022-09-01T02:43:05.965Z,100653.22
2022-09-01T02:48:09.721Z,100653.22
2022-09-01T02:53:15.415Z,100649.78
2022-09-01T02:58:24.868Z,100648.16
2022-09-01T03:03:29.680Z,100648.25
2022-09-01T03:08:36.758Z,100651.31
2022-09-01T03:13:42.376Z,100654.00
2022-09-01T03:18:45.407Z,100659.31
2022-09-01T03:23:49.808Z,100657.47
2022-09-01T03:28:54.366Z,100658.47
2022-09-01T03:33:58.044Z,100651.94
2022-09-01T03:39:07.234Z,100659.06
2022-09-01T03:44:12.280Z,100652.81
2022-09-01T03:49:16.956Z,100658.22
2022-09-01T03:54:19.680Z,100657.47
2022-09-01T03:59:25.246Z,100656.50
2022-09-01T04:04:28.077Z,100666.22
2022-09-01T04:09:30.912Z,100657.56
2022-09-01T04:14:35.647Z,100660.41
2022-09-01T04:19:39.506Z,100657.69
2022-09-01T04:24:45.572Z,100665.28
2022-09-01T04:29:50.057Z,100657.63
2022-09-01T04:34:52.807Z,100657.72
2022-09-01T04:39:57.634Z,100668.75
2022-09-01T04:45:10.674Z,100669.72
2022-09-01T04:50:17.609Z,100672.56
2022-09-01T04:55:43.540Z,100681.53
2022-09-01T05:00:52.595Z,100673.63
2022-09-01T05:05:58.257Z,100678.81
2022-09-01T05:11:07.529Z,100682.91
2022-09-01T05:16:22.745Z,100674.81
2022-09-01T05:21:29.683Z,100679.91
2022-09-01T05:26:34.572Z,100678.94
2022-09-01T05:31:38.976Z,100681.63
2022-09-01T05:36:48.233Z,100682.72
2022-09-01T05:41:50.995Z,100688.03
2022-09-01T05:46:56.064Z,100684.78
2022-09-01T05:52:01.362Z,100689.53
2022-09-01T05:57:30.400Z,100691.25
2022-09-01T06:02:33.867Z,100686.81
2022-09-01T06:07:40.766Z,100689.84
2022-09-01T06:12:45.291Z,100686.06
2022-09-01T06:17:53.949Z,100689.28
2022-09-01T06:22:56.903Z,100693.81
2022-09-01T06:28:04.483Z,100703.69
2022-09-01T06:33:10.906Z,100697.94
2022-09-01T06:38:17.538Z,100693.19
2022-09-01T06:43:23.216Z,100700.00
2022-09-01T06:48:30.678Z,100700.97
2022-09-01T06:53:40.954Z,100714.00
2022-09-01T06:58:48.270Z,100706.88
2022-09-01T07:03:55.445Z,100704.84
2022-09-01T07:09:21.624Z,100705.28
2022-09-01T07:20:25.847Z,100715.91
2022-09-01T07:26:00.394Z,100718.81
2022-09-01T07:36:30.136Z,100711.81
2022-09-01T07:52:22.625Z,100720.63
2022-09-01T07:57:30.683Z,100726.22
2022-09-01T08:02:34.422Z,100728.34
2022-09-01T08:07:51.713Z,100736.34
2022-09-01T08:12:56.775Z,100731.63
2022-09-01T08:17:59.820Z,100737.59
2022-09-01T08:23:08.434Z,100737.56
2022-09-01T08:28:14.831Z,100734.44
2022-09-01T08:33:20.876Z,100723.75
2022-09-01T08:38:25.772Z,100730.75
2022-09-01T08:43:47.363Z,100739.97
2022-09-01T08:54:45.517Z,100727.97
2022-09-01T08:59:50.497Z,100736.41
2022-09-01T09:05:16.074Z,100736.97
2022-09-01T09:10:25.112Z,100741.09
2022-09-01T09:15:33.916Z,100729.97
2022-09-01T09:20:38.778Z,100746.69
2022-09-01T09:25:44.840Z,100734.81
2022-09-01T09:30:48.725Z,100736.19
2022-09-01T09:35:51.745Z,100736.84
2022-09-01T09:41:16.395Z,100729.38
2022-09-01T09:46:27.604Z,100729.03
2022-09-01T09:51:30.427Z,100720.81
2022-09-01T09:56:36.103Z,100737.81
2022-09-01T10:01:39.795Z,100727.59
2022-09-01T10:06:46.854Z,100722.97
2022-09-01T10:11:56.046Z,100723.78
2022-09-01T10:17:06.447Z,100734.56
2022-09-01T10:22:10.409Z,100727.41
2022-09-01T10:27:22.042Z,100724.38
2022-09-01T10:32:37.298Z,100717.63
2022-09-01T10:37:44.943Z,100720.09
2022-09-01T10:42:53.848Z,100711.66
2022-09-01T10:47:56.875Z,100715.88
2022-09-01T10:53:06.485Z,100713.03
2022-09-01T11:03:56.544Z,100710.84
2022-09-01T11:09:04.470Z,100712.41
2022-09-01T11:14:21.924Z,100705.88
2022-09-01T11:19:41.155Z,100706.53
2022-09-01T11:24:58.024Z,100700.00
2022-09-01T11:30:10.726Z,100696.94
2022-09-01T11:35:19.023Z,100685.91
2022-09-01T11:40:29.653Z,100687.28
2022-09-01T11:45:45.463Z,100679.91
2022-09-01T11:50:59.269Z,100679.38
2022-09-01T11:56:15.214Z,100677.75
2022-09-01T12:01:21.421Z,100681.56
2022-09-01T12:06:27.135Z,100670.38
2022-09-01T12:11:33.055Z,100676.50
2022-09-01T12:16:42.054Z,100672.94
2022-09-01T12:21:59.843Z,100666.16
2022-09-01T12:27:04.970Z,100686.25
2022-09-01T12:32:11.147Z,100679.78
2022-09-01T12:37:22.850Z,100678.44
2022-09-01T12:42:29.911Z,100672.81
2022-09-01T12:47:52.389Z,100671.69
2022-09-01T12:52:58.187Z,100676.03
2022-09-01T12:58:02.861Z,100661.50
2022-09-01T13:03:14.403Z,100664.22
2022-09-01T13:08:19.962Z,100663.97
2022-09-01T13:13:25.055Z,100659.41
2022-09-01T13:18:30.427Z,100651.41
2022-09-01T13:23:33.245Z,100642.56
2022-09-01T13:28:38.839Z,100643.16
2022-09-01T13:39:07.850Z,100642.94
2022-09-01T13:44:11.779Z,100634.81
2022-09-01T13:54:38.710Z,100620.28
2022-09-01T13:59:41.900Z,100618.94
2022-09-01T14:04:46.012Z,100621.50
2022-09-01T14:09:48.729Z,100609.34
2022-09-01T14:20:19.223Z,100604.97
2022-09-01T14:25:22.616Z,100606.59
2022-09-01T14:30:31.457Z,100603.38
2022-09-01T14:35:39.398Z,100609.16
2022-09-01T14:40:43.496Z,100603.00
2022-09-01T14:45:48.128Z,100603.25
2022-09-01T14:50:52.232Z,100603.25
2022-09-01T14:55:56.997Z,100596.25
2022-09-01T15:01:11.949Z,100597.19
2022-09-01T15:06:24.354Z,100603.13
2022-09-01T15:11:28.380Z,100588.72
2022-09-01T15:16:31.128Z,100594.03
2022-09-01T15:21:35.467Z,100587.25
2022-09-01T15:26:40.698Z,100589.06
2022-09-01T15:31:45.931Z,100591.53
2022-09-01T15:36:50.095Z,100583.41
2022-09-01T15:41:53.858Z,100587.00
2022-09-01T15:46:56.708Z,100571.34
2022-09-01T15:52:01.074Z,100572.94
2022-09-01T15:57:03.916Z,100568.63
2022-09-01T16:02:08.237Z,100558.38
2022-09-01T16:07:12.455Z,100560.22
2022-09-01T16:12:15.290Z,100554.19
2022-09-01T16:24:43.659Z,100558.34
2022-09-01T16:29:49.685Z,100555.38
2022-09-01T16:34:53.892Z,100551.44
2022-09-01T16:40:09.305Z,100556.84
2022-09-01T16:45:21.488Z,100559.91
2022-09-01T16:50:37.885Z,100553.72
2022-09-01T16:55:58.329Z,100556.91
2022-09-01T17:01:14.273Z,100549.53
2022-09-01T17:06:26.754Z,100554.81
2022-09-01T17:11:39.270Z,100544.97
2022-09-01T17:16:45.065Z,100544.59
2022-09-01T17:21:53.407Z,100554.16
2022-09-01T17:27:07.703Z,100571.56
2022-09-01T17:32:21.811Z,100571.06
2022-09-01T17:37:33.195Z,100571.53
2022-09-01T17:42:44.859Z,100573.25
2022-09-01T17:47:58.505Z,100576.97
2022-09-01T17:53:12.738Z,100587.53
2022-09-01T17:58:39.567Z,100588.38
2022-09-01T18:04:00.276Z,100588.38
2022-09-01T18:09:11.075Z,100592.25
2022-09-01T18:14:18.956Z,100589.66
2022-09-01T18:19:25.537Z,100591.25
2022-09-01T18:24:36.251Z,100595.56
2022-09-01T18:29:40.349Z,100589.28
2022-09-01T18:35:03.772Z,100604.56
2022-09-01T18:40:17.296Z,100604.28
2022-09-01T18:45:32.893Z,100608.72
2022-09-01T18:50:45.649Z,100607.84
2022-09-01T18:55:54.997Z,100608.84
2022-09-01T19:01:05.871Z,100609.31
2022-09-01T19:06:17.212Z,100615.91
2022-09-01T19:11:32.930Z,100610.81
2022-09-01T19:16:56.025Z,100617.09
2022-09-01T19:21:59.159Z,100623.13
2022-09-01T19:27:08.986Z,100613.63
2022-09-01T19:32:18.274Z,100617.31
2022-09-01T19:37:21.839Z,100630.13
2022-09-01T19:42:32.109Z,100617.81
2022-09-01T19:47:42.967Z,100617.31
2022-09-01T19:52:55.477Z,100625.59
2022-09-01T19:58:03.634Z,100622.75
2022-09-01T20:03:13.003Z,100629.66
2022-09-01T20:08:24.161Z,100622.50
2022-09-01T20:13:50.872Z,100622.75
2022-09-01T20:19:11.450Z,100622.75
2022-09-01T20:24:20.513Z,100618.31
2022-09-01T20:29:32.374Z,100627.31
2022-09-01T20:34:44.560Z,100625.84
2022-09-01T20:40:04.788Z,100631.50
2022-09-01T20:45:13.149Z,100629.28
2022-09-01T20:50:18.815Z,100630.13
2022-09-01T20:55:28.748Z,100630.03
2022-09-01T21:00:36.491Z,100640.03
2022-09-01T21:05:49.674Z,100636.31
2022-09-01T21:10:59.341Z,100638.06
2022-09-01T21:16:10.222Z,100637.09
2022-09-01T21:21:23.552Z,100634.22
2022-09-01T21:26:26.518Z,100630.03
2022-09-01T21:31:29.304Z,100629.53
2022-09-01T21:36:33.350Z,100621.50
2022-09-01T21:41:36.159Z,100627.94
2022-09-01T21:46:39.263Z,100632.38
2022-09-01T21:51:43.314Z,100625.22
2022-09-01T21:56:46.098Z,100627.09
2022-09-01T22:01:49.476Z,100625.84
2022-09-01T22:06:54.618Z,100619.16
2022-09-01T22:11:57.293Z,100622.75
2022-09-01T22:17:04.123Z,100618.56
2022-09-01T22:22:09.091Z,100623.22
2022-09-01T22:27:11.781Z,100618.09
2022-09-01T22:32:14.495Z,100613.91
2022-09-01T22:37:18.769Z,100620.94
2022-09-01T22:42:21.447Z,100614.97
2022-09-01T22:47:24.275Z,100627.72
2022-09-01T22:52:29.821Z,100619.97
2022-09-01T22:57:32.509Z,100625.03
2022-09-01T23:02:35.668Z,100618.13
2022-09-01T23:07:39.968Z,100615.91
2022-09-01T23:12:42.695Z,100611.84
2022-09-01T23:17:45.384Z,100606.78
2022-09-01T23:22:49.802Z,100610.72
2022-09-01T23:27:52.564Z,100608.41
2022-09-01T23:32:55.454Z,100605.22
2022-09-01T23:38:00.077Z,100605.44
2022-09-01T23:43:03.026Z,100602.16
2022-09-01T23:48:06.081Z,100603.25
2022-09-01T23:53:10.419Z,100602.63
2022-09-01T23:58:14.009Z,100603.00
